Autumn — V7QA6 — position and weather

sailwx.info

Track history (hours):
 
Tides and Currents Weather Stations Pressure Air Temp Water Temp Dewpoint Dewpoint Depression Visibility Wind Speed Wind Dir Waves Ship Positions

Autumn

Last reported at 2017-Aug-20 08:00 UTC. Time now 2017-Aug-20 08:06 UTC.
Position N 51°54' E 004°22'.

Length 129 m; draft 6.2 m.

Type: Tanker. MMSI: 538003323.

Date/timePositionNaut miles runAvg speedWind from/ knotsBaromVisibWave heightAir tempDewpointWater temp
2017-Aug-20 08:00N 51°54' E 004°22'0 0.0
2017-Aug-20 07:30N 51°54' E 004°22'0 0.0
2017-Aug-20 07:00N 51°54' E 004°22'0 0.0
2017-Aug-20 06:30N 51°54' E 004°22'0 0.0
2017-Aug-20 06:00N 51°54' E 004°22'0 0.0
2017-Aug-20 05:30N 51°54' E 004°22'0 0.0
2017-Aug-20 05:00N 51°54' E 004°22'0 0.0
2017-Aug-20 04:30N 51°54' E 004°22'0 0.4
2017-Aug-20 04:01N 51°54' E 004°21'2 4.6
2017-Aug-20 03:30N 51°54' E 004°18'4 8.4
2017-Aug-20 03:00N 51°56' E 004°12'5 9.7
2017-Aug-20 02:30N 51°59' E 004°05'612.0
2017-Aug-20 02:00N 52°01' E 003°56'611.5
2017-Aug-20 01:30N 52°01' E 003°47'510.9
2017-Aug-20 01:00N 52°06' E 003°44'2 3.0
2017-Aug-20 00:30N 52°08' E 003°44'0 0.0
2017-Aug-20 00:00N 52°08' E 003°44'0 0.0
2017-Aug-19 23:30N 52°08' E 003°44'0 0.0
2017-Aug-19 23:00N 52°08' E 003°44'0 0.1
2017-Aug-19 22:30N 52°08' E 003°44'0 0.0
2017-Aug-19 22:00N 52°08' E 003°44'0 0.0
2017-Aug-19 21:30N 52°08' E 003°44'0 0.0
2017-Aug-19 21:00N 52°08' E 003°44'0 0.1
2017-Aug-19 20:30N 52°08' E 003°44'0 0.1
2017-Aug-19 20:00N 52°08' E 003°44'0 0.0
2017-Aug-19 19:30N 52°08' E 003°44'0 0.0
2017-Aug-19 19:00N 52°08' E 003°44'0 0.1
2017-Aug-19 18:30N 52°08' E 003°44'0 0.1
2017-Aug-19 18:00N 52°08' E 003°44'0 0.0
2017-Aug-19 17:30N 52°08' E 003°44'0 0.9
2017-Aug-19 17:01N 52°08' E 003°45'5 9.7
2017-Aug-19 16:30N 52°13' E 003°46'612.2
2017-Aug-19 16:00N 52°19' E 003°47'611.7
2017-Aug-19 15:30N 52°25' E 003°50'611.0
2017-Aug-19 14:59N 52°30' E 003°52'1111.2
2017-Aug-19 14:00N 52°31' E 004°10'611.7
2017-Aug-19 13:31N 52°30' E 004°20'510.9
2017-Aug-19 13:01N 52°29' E 004°28'5 9.4
2017-Aug-19 12:31N 52°28' E 004°36'1 1.2
2017-Aug-19 12:01N 52°28' E 004°37'3 5.8
2017-Aug-19 11:31N 52°27' E 004°41'3 5.1
2017-Aug-19 10:55N 52°25' E 004°45'0 0.0
2017-Aug-19 10:28N 52°25' E 004°45'0 0.0
2017-Aug-19 09:58N 52°25' E 004°45'0 0.0
2017-Aug-19 09:25N 52°25' E 004°45'0 0.0
2017-Aug-19 08:58N 52°25' E 004°45'0 0.0
2017-Aug-19 08:28N 52°25' E 004°45'0 0.0
2017-Aug-19 07:58N 52°25' E 004°45'0 0.0
2017-Aug-19 07:28N 52°25' E 004°45'0 0.0
2017-Aug-19 06:52N 52°25' E 004°45'0 0.0
2017-Aug-19 06:28N 52°25' E 004°45'0 0.0
2017-Aug-19 05:58N 52°25' E 004°45'0 0.0
2017-Aug-19 05:28N 52°25' E 004°45'0 0.0
2017-Aug-19 04:58N 52°25' E 004°45'0 0.0
2017-Aug-19 04:28N 52°25' E 004°45'0 0.0
2017-Aug-19 03:52N 52°25' E 004°45'0 0.0
2017-Aug-19 03:28N 52°25' E 004°45'0 0.0
2017-Aug-19 02:55N 52°25' E 004°45'0 0.0
2017-Aug-19 02:25N 52°25' E 004°45'0 0.0
2017-Aug-19 01:58N 52°25' E 004°45'0 0.0
2017-Aug-19 01:28N 52°25' E 004°45'0 0.0
2017-Aug-19 00:58N 52°25' E 004°45'0 0.0
2017-Aug-19 00:28N 52°25' E 004°45'0 0.0
2017-Aug-18 23:55N 52°25' E 004°45'0 0.0
2017-Aug-18 23:28N 52°25' E 004°45'0 0.0
2017-Aug-18 22:58N 52°25' E 004°45'0 0.0
2017-Aug-18 22:19N 52°25' E 004°45'0 0.0
2017-Aug-18 21:58N 52°25' E 004°45'0 0.0
2017-Aug-18 21:28N 52°25' E 004°45'0 0.0
2017-Aug-18 20:58N 52°25' E 004°45'0 0.0
2017-Aug-18 20:22N 52°25' E 004°45'0 0.0
2017-Aug-18 19:58N 52°25' E 004°45'0 0.0
2017-Aug-18 19:28N 52°25' E 004°45'0 0.0
2017-Aug-18 18:55N 52°25' E 004°45'0 0.0
2017-Aug-18 18:25N 52°25' E 004°45'0 0.0
2017-Aug-18 17:58N 52°25' E 004°45'0 0.0
2017-Aug-18 17:28N 52°25' E 004°45'0 0.0
2017-Aug-18 16:58N 52°25' E 004°45'0 0.0
2017-Aug-18 16:28N 52°25' E 004°45'0 0.0
2017-Aug-18 15:58N 52°25' E 004°45'0 0.0
2017-Aug-18 15:19N 52°25' E 004°45'0 0.0
2017-Aug-18 14:58N 52°25' E 004°45'0 0.0
2017-Aug-18 13:58N 52°25' E 004°45'0 0.0
2017-Aug-18 13:28N 52°25' E 004°45'0 0.0
2017-Aug-18 12:58N 52°25' E 004°45'0 0.0
2017-Aug-18 12:28N 52°25' E 004°45'0 0.0
2017-Aug-18 11:58N 52°25' E 004°45'0 0.0
2017-Aug-18 11:28N 52°25' E 004°45'0 0.0
2017-Aug-18 10:58N 52°25' E 004°45'0 0.0
2017-Aug-18 10:28N 52°25' E 004°45'0 0.0
2017-Aug-18 09:58N 52°25' E 004°45'0 0.0
2017-Aug-18 09:28N 52°25' E 004°45'0 0.0
2017-Aug-18 08:55N 52°25' E 004°45'0 0.0
2017-Aug-18 08:28N 52°25' E 004°45'0 0.0
2017-Aug-18 07:58N 52°25' E 004°45'0 0.0
2017-Aug-18 07:28N 52°25' E 004°45'0 0.0
2017-Aug-18 06:58N 52°25' E 004°45'0 0.0
2017-Aug-18 06:28N 52°25' E 004°45'0 0.0
2017-Aug-18 05:58N 52°25' E 004°45'0 0.0
2017-Aug-18 05:28N 52°25' E 004°45'0 0.0
2017-Aug-18 04:58N 52°25' E 004°45'0 0.8
2017-Aug-18 04:30N 52°25' E 004°45'3 5.7
2017-Aug-18 04:00N 52°27' E 004°41'3 5.4
2017-Aug-18 03:26N 52°28' E 004°36'0 0.6
2017-Aug-18 03:00N 52°28' E 004°36'4 8.1
2017-Aug-18 02:30N 52°28' E 004°29'4 8.3
2017-Aug-18 02:00N 52°28' E 004°23'3 5.9
2017-Aug-18 01:30N 52°28' E 004°18'4 7.3
2017-Aug-18 01:00N 52°29' E 004°12'3 5.7
2017-Aug-18 00:30N 52°31' E 004°08'3 5.5
2017-Aug-18 00:00N 52°33' E 004°06'3 5.1
2017-Aug-17 23:30N 52°36' E 004°05'3 5.2
2017-Aug-17 23:00N 52°38' E 004°03'3 5.7
2017-Aug-17 22:30N 52°40' E 004°01'33910.8
2017-Aug-16 15:05N 57°32' E 009°03'111.9
2017-Aug-16 14:59N 57°33' E 009°05'612.0
2017-Aug-16 14:29N 57°37' E 009°14'612.0
2017-Aug-16 14:00N 57°40' E 009°23'4311.4
2017-Aug-16 10:16N 57°50' E 010°41'311.7
2017-Aug-16 10:00N 57°48' E 010°45'612.0
2017-Aug-16 09:30N 57°44' E 010°53'612.3
2017-Aug-16 09:00N 57°40' E 011°02'712.4
2017-Aug-16 08:29N 57°35' E 011°10'612.5
2017-Aug-16 08:00N 57°31' E 011°19'612.3
2017-Aug-16 07:30N 57°27' E 011°26'612.6
2017-Aug-16 07:01N 57°21' E 011°30'612.6
2017-Aug-16 06:30N 57°15' E 011°34'712.3
2017-Aug-16 05:55N 57°08' E 011°38'712.5
2017-Aug-16 05:24N 57°02' E 011°42'512.2
2017-Aug-16 04:59N 56°57' E 011°45'611.9
2017-Aug-16 04:29N 56°52' E 011°49'711.5
2017-Aug-16 03:52N 56°45' E 011°53'512.6
2017-Aug-16 03:28N 56°41' E 011°48'812.4
2017-Aug-16 02:50N 56°34' E 011°41'1112.3
2017-Aug-16 01:58N 56°25' E 011°31'612.5
2017-Aug-16 01:30N 56°20' E 011°26'612.5
2017-Aug-16 00:59N 56°14' E 011°20'1013.0
2017-Aug-16 00:13N 56°06' E 011°09'313.5
2017-Aug-15 23:59N 56°03' E 011°07'713.6
2017-Aug-15 23:30N 55°58' E 011°01'714.3
2017-Aug-15 22:59N 55°52' E 010°53'713.5
2017-Aug-15 22:29N 55°46' E 010°49'612.2
2017-Aug-15 22:01N 55°41' E 010°42'611.9
2017-Aug-15 21:30N 55°39' E 010°32'612.2
2017-Aug-15 21:00N 55°40' E 010°21'612.5
2017-Aug-15 20:29N 55°40' E 010°10'612.9
2017-Aug-15 20:00N 55°37' E 009°60'9 0.4
2017-Aug-14 22:32N 55°33' E 009°46'0 0.0
2017-Aug-14 22:29N 55°33' E 009°46'0 0.0
2017-Aug-14 21:53N 55°33' E 009°46'15 0.4
2017-Aug-13 07:23N 55°40' E 010°09'512.1
2017-Aug-13 06:59N 55°40' E 010°17'612.0
2017-Aug-13 06:28N 55°39' E 010°28'511.2
2017-Aug-13 05:59N 55°40' E 010°38'611.5
2017-Aug-13 05:29N 55°43' E 010°47'511.2
2017-Aug-13 05:00N 55°48' E 010°48'612.3
2017-Aug-13 04:30N 55°53' E 010°54'612.6
2017-Aug-13 03:59N 55°59' E 011°01'812.8
2017-Aug-13 03:20N 56°06' E 011°08'412.8
2017-Aug-13 03:00N 56°09' E 011°14'6711.8
2017-Aug-12 21:19N 57°15' E 011°33'413.1
2017-Aug-12 21:00N 57°19' E 011°31'713.0
2017-Aug-12 20:30N 57°25' E 011°27'612.8
2017-Aug-12 20:00N 57°30' E 011°20'713.2
2017-Aug-12 19:30N 57°35' E 011°10'713.9
2017-Aug-12 19:00N 57°38' E 010°59'713.5
2017-Aug-12 18:31N 57°41' E 010°48'510.4
2017-Aug-12 17:59N 57°42' E 010°38'0 0.6
2017-Aug-12 17:21N 57°43' E 010°38'0 0.0
2017-Aug-12 16:54N 57°43' E 010°38'0 0.0
2017-Aug-12 16:30N 57°43' E 010°38'0 0.0
2017-Aug-12 15:39N 57°43' E 010°38'0 0.0
2017-Aug-12 14:30N 57°43' E 010°38'0 0.0
2017-Aug-12 13:51N 57°43' E 010°38'0 0.0
2017-Aug-12 13:18N 57°43' E 010°38'0 0.0
2017-Aug-12 13:00N 57°43' E 010°38'0 0.0
2017-Aug-12 12:15N 57°43' E 010°38'0 0.0
2017-Aug-12 11:54N 57°43' E 010°38'0 0.0
2017-Aug-12 11:24N 57°43' E 010°38'2 4.3
2017-Aug-12 10:57N 57°43' E 010°41'3 7.5
2017-Aug-12 10:29N 57°47' E 010°41'611.7
2017-Aug-12 10:00N 57°47' E 010°31'713.6
2017-Aug-12 09:30N 57°46' E 010°18'1314.0
2017-Aug-12 08:33N 57°45' E 009°53'313.6
2017-Aug-12 08:18N 57°44' E 009°47'913.6
2017-Aug-12 07:37N 57°43' E 009°29'513.6
2017-Aug-12 07:17N 57°43' E 009°21'38512.8
2017-Aug-11 01:20N 58°42' W 002°40'412.8
2017-Aug-11 01:00N 58°42' W 002°49'611.7
2017-Aug-11 00:31N 58°43' W 002°60'815.0
2017-Aug-11 00:00N 58°43' W 003°14'714.9
2017-Aug-10 23:30N 58°42' W 003°29'714.3
2017-Aug-10 23:00N 58°42' W 003°42'714.2
2017-Aug-10 22:30N 58°42' W 003°56'714.0
2017-Aug-10 22:00N 58°41' W 004°09'714.0
2017-Aug-10 21:30N 58°41' W 004°23'2813.7
2017-Aug-10 19:26N 58°32' W 005°14'  
Track history (hours):
 
Tides and Currents Weather Stations Pressure Air Temp Water Temp Dewpoint Dewpoint Depression Visibility Wind Speed Wind Dir Waves Ship Positions

Autumn

Last reported at 2017-Aug-20 08:00 UTC. Time now 2017-Aug-20 08:06 UTC.
Position N 51°54' E 004°22'.

Length 129 m; draft 6.2 m.

Type: Tanker. MMSI: 538003323.

Date/timePositionNaut miles runAvg speedWind from/ knotsBaromVisibWave heightAir tempDewpointWater temp
2017-Aug-20 08:00N 51°54' E 004°22'0 0.0
2017-Aug-20 07:30N 51°54' E 004°22'0 0.0
2017-Aug-20 07:00N 51°54' E 004°22'0 0.0
2017-Aug-20 06:30N 51°54' E 004°22'0 0.0
2017-Aug-20 06:00N 51°54' E 004°22'0 0.0
2017-Aug-20 05:30N 51°54' E 004°22'0 0.0
2017-Aug-20 05:00N 51°54' E 004°22'0 0.0
2017-Aug-20 04:30N 51°54' E 004°22'0 0.4
2017-Aug-20 04:01N 51°54' E 004°21'2 4.6
2017-Aug-20 03:30N 51°54' E 004°18'4 8.4
2017-Aug-20 03:00N 51°56' E 004°12'5 9.7
2017-Aug-20 02:30N 51°59' E 004°05'612.0
2017-Aug-20 02:00N 52°01' E 003°56'611.5
2017-Aug-20 01:30N 52°01' E 003°47'510.9
2017-Aug-20 01:00N 52°06' E 003°44'2 3.0
2017-Aug-20 00:30N 52°08' E 003°44'0 0.0
2017-Aug-20 00:00N 52°08' E 003°44'0 0.0
2017-Aug-19 23:30N 52°08' E 003°44'0 0.0
2017-Aug-19 23:00N 52°08' E 003°44'0 0.1
2017-Aug-19 22:30N 52°08' E 003°44'0 0.0
2017-Aug-19 22:00N 52°08' E 003°44'0 0.0
2017-Aug-19 21:30N 52°08' E 003°44'0 0.0
2017-Aug-19 21:00N 52°08' E 003°44'0 0.1
2017-Aug-19 20:30N 52°08' E 003°44'0 0.1
2017-Aug-19 20:00N 52°08' E 003°44'0 0.0
2017-Aug-19 19:30N 52°08' E 003°44'0 0.0
2017-Aug-19 19:00N 52°08' E 003°44'0 0.1
2017-Aug-19 18:30N 52°08' E 003°44'0 0.1
2017-Aug-19 18:00N 52°08' E 003°44'0 0.0
2017-Aug-19 17:30N 52°08' E 003°44'0 0.9
2017-Aug-19 17:01N 52°08' E 003°45'5 9.7
2017-Aug-19 16:30N 52°13' E 003°46'612.2
2017-Aug-19 16:00N 52°19' E 003°47'611.7
2017-Aug-19 15:30N 52°25' E 003°50'611.0
2017-Aug-19 14:59N 52°30' E 003°52'1111.2
2017-Aug-19 14:00N 52°31' E 004°10'611.7
2017-Aug-19 13:31N 52°30' E 004°20'510.9
2017-Aug-19 13:01N 52°29' E 004°28'5 9.4
2017-Aug-19 12:31N 52°28' E 004°36'1 1.2
2017-Aug-19 12:01N 52°28' E 004°37'3 5.8
2017-Aug-19 11:31N 52°27' E 004°41'3 5.1
2017-Aug-19 10:55N 52°25' E 004°45'0 0.0
2017-Aug-19 10:28N 52°25' E 004°45'0 0.0
2017-Aug-19 09:58N 52°25' E 004°45'0 0.0
2017-Aug-19 09:25N 52°25' E 004°45'0 0.0
2017-Aug-19 08:58N 52°25' E 004°45'0 0.0
2017-Aug-19 08:28N 52°25' E 004°45'0 0.0
2017-Aug-19 07:58N 52°25' E 004°45'0 0.0
2017-Aug-19 07:28N 52°25' E 004°45'0 0.0
2017-Aug-19 06:52N 52°25' E 004°45'0 0.0
2017-Aug-19 06:28N 52°25' E 004°45'0 0.0
2017-Aug-19 05:58N 52°25' E 004°45'0 0.0
2017-Aug-19 05:28N 52°25' E 004°45'0 0.0
2017-Aug-19 04:58N 52°25' E 004°45'0 0.0
2017-Aug-19 04:28N 52°25' E 004°45'0 0.0
2017-Aug-19 03:52N 52°25' E 004°45'0 0.0
2017-Aug-19 03:28N 52°25' E 004°45'0 0.0
2017-Aug-19 02:55N 52°25' E 004°45'0 0.0
2017-Aug-19 02:25N 52°25' E 004°45'0 0.0
2017-Aug-19 01:58N 52°25' E 004°45'0 0.0
2017-Aug-19 01:28N 52°25' E 004°45'0 0.0
2017-Aug-19 00:58N 52°25' E 004°45'0 0.0
2017-Aug-19 00:28N 52°25' E 004°45'0 0.0
2017-Aug-18 23:55N 52°25' E 004°45'0 0.0
2017-Aug-18 23:28N 52°25' E 004°45'0 0.0
2017-Aug-18 22:58N 52°25' E 004°45'0 0.0
2017-Aug-18 22:19N 52°25' E 004°45'0 0.0
2017-Aug-18 21:58N 52°25' E 004°45'0 0.0
2017-Aug-18 21:28N 52°25' E 004°45'0 0.0
2017-Aug-18 20:58N 52°25' E 004°45'0 0.0
2017-Aug-18 20:22N 52°25' E 004°45'0 0.0
2017-Aug-18 19:58N 52°25' E 004°45'0 0.0
2017-Aug-18 19:28N 52°25' E 004°45'0 0.0
2017-Aug-18 18:55N 52°25' E 004°45'0 0.0
2017-Aug-18 18:25N 52°25' E 004°45'0 0.0
2017-Aug-18 17:58N 52°25' E 004°45'0 0.0
2017-Aug-18 17:28N 52°25' E 004°45'0 0.0
2017-Aug-18 16:58N 52°25' E 004°45'0 0.0
2017-Aug-18 16:28N 52°25' E 004°45'0 0.0
2017-Aug-18 15:58N 52°25' E 004°45'0 0.0
2017-Aug-18 15:19N 52°25' E 004°45'0 0.0
2017-Aug-18 14:58N 52°25' E 004°45'0 0.0
2017-Aug-18 13:58N 52°25' E 004°45'0 0.0
2017-Aug-18 13:28N 52°25' E 004°45'0 0.0
2017-Aug-18 12:58N 52°25' E 004°45'0 0.0
2017-Aug-18 12:28N 52°25' E 004°45'0 0.0
2017-Aug-18 11:58N 52°25' E 004°45'0 0.0
2017-Aug-18 11:28N 52°25' E 004°45'0 0.0
2017-Aug-18 10:58N 52°25' E 004°45'0 0.0
2017-Aug-18 10:28N 52°25' E 004°45'0 0.0
2017-Aug-18 09:58N 52°25' E 004°45'0 0.0
2017-Aug-18 09:28N 52°25' E 004°45'0 0.0
2017-Aug-18 08:55N 52°25' E 004°45'0 0.0
2017-Aug-18 08:28N 52°25' E 004°45'0 0.0
2017-Aug-18 07:58N 52°25' E 004°45'0 0.0
2017-Aug-18 07:28N 52°25' E 004°45'0 0.0
2017-Aug-18 06:58N 52°25' E 004°45'0 0.0
2017-Aug-18 06:28N 52°25' E 004°45'0 0.0
2017-Aug-18 05:58N 52°25' E 004°45'0 0.0
2017-Aug-18 05:28N 52°25' E 004°45'0 0.0
2017-Aug-18 04:58N 52°25' E 004°45'0 0.8
2017-Aug-18 04:30N 52°25' E 004°45'3 5.7
2017-Aug-18 04:00N 52°27' E 004°41'3 5.4
2017-Aug-18 03:26N 52°28' E 004°36'0 0.6
2017-Aug-18 03:00N 52°28' E 004°36'4 8.1
2017-Aug-18 02:30N 52°28' E 004°29'4 8.3
2017-Aug-18 02:00N 52°28' E 004°23'3 5.9
2017-Aug-18 01:30N 52°28' E 004°18'4 7.3
2017-Aug-18 01:00N 52°29' E 004°12'3 5.7
2017-Aug-18 00:30N 52°31' E 004°08'3 5.5
2017-Aug-18 00:00N 52°33' E 004°06'3 5.1
2017-Aug-17 23:30N 52°36' E 004°05'3 5.2
2017-Aug-17 23:00N 52°38' E 004°03'3 5.7
2017-Aug-17 22:30N 52°40' E 004°01'33910.8
2017-Aug-16 15:05N 57°32' E 009°03'111.9
2017-Aug-16 14:59N 57°33' E 009°05'612.0
2017-Aug-16 14:29N 57°37' E 009°14'612.0
2017-Aug-16 14:00N 57°40' E 009°23'4311.4
2017-Aug-16 10:16N 57°50' E 010°41'311.7
2017-Aug-16 10:00N 57°48' E 010°45'612.0
2017-Aug-16 09:30N 57°44' E 010°53'612.3
2017-Aug-16 09:00N 57°40' E 011°02'712.4
2017-Aug-16 08:29N 57°35' E 011°10'612.5
2017-Aug-16 08:00N 57°31' E 011°19'612.3
2017-Aug-16 07:30N 57°27' E 011°26'612.6
2017-Aug-16 07:01N 57°21' E 011°30'612.6
2017-Aug-16 06:30N 57°15' E 011°34'712.3
2017-Aug-16 05:55N 57°08' E 011°38'712.5
2017-Aug-16 05:24N 57°02' E 011°42'512.2
2017-Aug-16 04:59N 56°57' E 011°45'611.9
2017-Aug-16 04:29N 56°52' E 011°49'711.5
2017-Aug-16 03:52N 56°45' E 011°53'512.6
2017-Aug-16 03:28N 56°41' E 011°48'812.4
2017-Aug-16 02:50N 56°34' E 011°41'1112.3
2017-Aug-16 01:58N 56°25' E 011°31'612.5
2017-Aug-16 01:30N 56°20' E 011°26'612.5
2017-Aug-16 00:59N 56°14' E 011°20'1013.0
2017-Aug-16 00:13N 56°06' E 011°09'313.5
2017-Aug-15 23:59N 56°03' E 011°07'713.6
2017-Aug-15 23:30N 55°58' E 011°01'714.3
2017-Aug-15 22:59N 55°52' E 010°53'713.5
2017-Aug-15 22:29N 55°46' E 010°49'612.2
2017-Aug-15 22:01N 55°41' E 010°42'611.9
2017-Aug-15 21:30N 55°39' E 010°32'612.2
2017-Aug-15 21:00N 55°40' E 010°21'612.5
2017-Aug-15 20:29N 55°40' E 010°10'612.9
2017-Aug-15 20:00N 55°37' E 009°60'9 0.4
2017-Aug-14 22:32N 55°33' E 009°46'0 0.0
2017-Aug-14 22:29N 55°33' E 009°46'0 0.0
2017-Aug-14 21:53N 55°33' E 009°46'15 0.4
2017-Aug-13 07:23N 55°40' E 010°09'512.1
2017-Aug-13 06:59N 55°40' E 010°17'612.0
2017-Aug-13 06:28N 55°39' E 010°28'511.2
2017-Aug-13 05:59N 55°40' E 010°38'611.5
2017-Aug-13 05:29N 55°43' E 010°47'511.2
2017-Aug-13 05:00N 55°48' E 010°48'612.3
2017-Aug-13 04:30N 55°53' E 010°54'612.6
2017-Aug-13 03:59N 55°59' E 011°01'812.8
2017-Aug-13 03:20N 56°06' E 011°08'412.8
2017-Aug-13 03:00N 56°09' E 011°14'6711.8
2017-Aug-12 21:19N 57°15' E 011°33'413.1
2017-Aug-12 21:00N 57°19' E 011°31'713.0
2017-Aug-12 20:30N 57°25' E 011°27'612.8
2017-Aug-12 20:00N 57°30' E 011°20'713.2
2017-Aug-12 19:30N 57°35' E 011°10'713.9
2017-Aug-12 19:00N 57°38' E 010°59'713.5
2017-Aug-12 18:31N 57°41' E 010°48'510.4
2017-Aug-12 17:59N 57°42' E 010°38'0 0.6
2017-Aug-12 17:21N 57°43' E 010°38'0 0.0
2017-Aug-12 16:54N 57°43' E 010°38'0 0.0
2017-Aug-12 16:30N 57°43' E 010°38'0 0.0
2017-Aug-12 15:39N 57°43' E 010°38'0 0.0
2017-Aug-12 14:30N 57°43' E 010°38'0 0.0
2017-Aug-12 13:51N 57°43' E 010°38'0 0.0
2017-Aug-12 13:18N 57°43' E 010°38'0 0.0
2017-Aug-12 13:00N 57°43' E 010°38'0 0.0
2017-Aug-12 12:15N 57°43' E 010°38'0 0.0
2017-Aug-12 11:54N 57°43' E 010°38'0 0.0
2017-Aug-12 11:24N 57°43' E 010°38'2 4.3
2017-Aug-12 10:57N 57°43' E 010°41'3 7.5
2017-Aug-12 10:29N 57°47' E 010°41'611.7
2017-Aug-12 10:00N 57°47' E 010°31'713.6
2017-Aug-12 09:30N 57°46' E 010°18'1314.0
2017-Aug-12 08:33N 57°45' E 009°53'313.6
2017-Aug-12 08:18N 57°44' E 009°47'913.6
2017-Aug-12 07:37N 57°43' E 009°29'513.6
2017-Aug-12 07:17N 57°43' E 009°21'38512.8
2017-Aug-11 01:20N 58°42' W 002°40'412.8
2017-Aug-11 01:00N 58°42' W 002°49'611.7
2017-Aug-11 00:31N 58°43' W 002°60'815.0
2017-Aug-11 00:00N 58°43' W 003°14'714.9
2017-Aug-10 23:30N 58°42' W 003°29'714.3
2017-Aug-10 23:00N 58°42' W 003°42'714.2
2017-Aug-10 22:30N 58°42' W 003°56'714.0
2017-Aug-10 22:00N 58°41' W 004°09'714.0
2017-Aug-10 21:30N 58°41' W 004°23'2813.7
2017-Aug-10 19:26N 58°32' W 005°14'  

Dump ship's entire track history